sensor_id;sensor_type;location;lat;lon;timestamp;temperature;humidity
2130;DHT22;1071;52.544;13.374;2023-05-16T00:00:56;16.70;99.90
2130;DHT22;1071;52.544;13.374;2023-05-16T00:03:24;16.70;99.90
2130;DHT22;1071;52.544;13.374;2023-05-16T00:05:51;16.70;99.90
2130;DHT22;1071;52.544;13.374;2023-05-16T00:08:18;16.70;99.90
2130;DHT22;1071;52.544;13.374;2023-05-16T00:10:46;16.70;99.90
2130;DHT22;1071;52.544;13.374;2023-05-16T00:13:14;16.70;99.90
2130;DHT22;1071;52.544;13.374;2023-05-16T00:15:46;16.70;99.90
2130;DHT22;1071;52.544;13.374;2023-05-16T00:18:14;16.70;99.90
2130;DHT22;1071;52.544;13.374;2023-05-16T00:20:44;16.70;99.90
2130;DHT22;1071;52.544;13.374;2023-05-16T00:23:11;16.70;99.90
2130;DHT22;1071;52.544;13.374;2023-05-16T00:25:38;16.70;99.90
2130;DHT22;1071;52.544;13.374;2023-05-16T00:28:06;16.70;99.90
2130;DHT22;1071;52.544;13.374;2023-05-16T00:30:34;16.70;99.90
2130;DHT22;1071;52.544;13.374;2023-05-16T00:33:02;16.70;99.90
2130;DHT22;1071;52.544;13.374;2023-05-16T00:35:31;16.70;99.90
2130;DHT22;1071;52.544;13.374;2023-05-16T00:37:58;16.70;99.90
2130;DHT22;1071;52.544;13.374;2023-05-16T00:40:25;16.60;99.90
2130;DHT22;1071;52.544;13.374;2023-05-16T00:42:53;16.60;99.90
2130;DHT22;1071;52.544;13.374;2023-05-16T00:45:20;16.60;99.90
2130;DHT22;1071;52.544;13.374;2023-05-16T00:47:49;16.60;99.90
2130;DHT22;1071;52.544;13.374;2023-05-16T00:50:17;16.60;99.90
2130;DHT22;1071;52.544;13.374;2023-05-16T00:52:46;16.50;99.90
2130;DHT22;1071;52.544;13.374;2023-05-16T00:55:13;16.50;99.90
2130;DHT22;1071;52.544;13.374;2023-05-16T00:57:41;16.50;99.90
2130;DHT22;1071;52.544;13.374;2023-05-16T01:00:08;16.50;99.90
2130;DHT22;1071;52.544;13.374;2023-05-16T01:02:37;16.50;99.90
2130;DHT22;1071;52.544;13.374;2023-05-16T01:05:06;16.40;99.90
2130;DHT22;1071;52.544;13.374;2023-05-16T01:07:36;16.40;99.90
2130;DHT22;1071;52.544;13.374;2023-05-16T01:10:05;16.40;99.90
2130;DHT22;1071;52.544;13.374;2023-05-16T01:12:37;16.40;99.90
2130;DHT22;1071;52.544;13.374;2023-05-16T01:15:10;16.30;99.90
2130;DHT22;1071;52.544;13.374;2023-05-16T01:17:48;16.30;99.90
2130;DHT22;1071;52.544;13.374;2023-05-16T01:20:28;16.30;99.90
2130;DHT22;1071;52.544;13.374;2023-05-16T01:23:12;16.20;99.90
2130;DHT22;1071;52.544;13.374;2023-05-16T01:25:55;16.20;99.90
2130;DHT22;1071;52.544;13.374;2023-05-16T01:28:24;16.20;99.90
2130;DHT22;1071;52.544;13.374;2023-05-16T01:30:53;16.10;99.90
2130;DHT22;1071;52.544;13.374;2023-05-16T01:33:20;16.10;99.90
2130;DHT22;1071;52.544;13.374;2023-05-16T01:35:52;16.10;99.90
2130;DHT22;1071;52.544;13.374;2023-05-16T01:38:25;16.10;99.90
2130;DHT22;1071;52.544;13.374;2023-05-16T01:41:03;16.10;99.90
2130;DHT22;1071;52.544;13.374;2023-05-16T01:43:39;16.00;99.90
2130;DHT22;1071;52.544;13.374;2023-05-16T01:46:10;16.00;99.90
2130;DHT22;1071;52.544;13.374;2023-05-16T01:48:46;16.00;99.90
2130;DHT22;1071;52.544;13.374;2023-05-16T01:51:18;15.90;99.90
2130;DHT22;1071;52.544;13.374;2023-05-16T01:53:49;15.90;99.90
2130;DHT22;1071;52.544;13.374;2023-05-16T01:56:18;15.90;99.90
2130;DHT22;1071;52.544;13.374;2023-05-16T01:58:54;15.90;99.90
2130;DHT22;1071;52.544;13.374;2023-05-16T02:01:24;15.80;99.90
2130;DHT22;1071;52.544;13.374;2023-05-16T02:03:51;15.80;99.90
2130;DHT22;1071;52.544;13.374;2023-05-16T02:06:23;15.80;99.90
2130;DHT22;1071;52.544;13.374;2023-05-16T02:08:54;15.80;99.90
2130;DHT22;1071;52.544;13.374;2023-05-16T02:11:21;15.70;99.90
2130;DHT22;1071;52.544;13.374;2023-05-16T02:13:49;15.70;99.90
2130;DHT22;1071;52.544;13.374;2023-05-16T02:16:17;15.60;99.90
2130;DHT22;1071;52.544;13.374;2023-05-16T02:18:44;15.60;99.90
2130;DHT22;1071;52.544;13.374;2023-05-16T02:21:11;15.60;99.90
2130;DHT22;1071;52.544;13.374;2023-05-16T02:23:38;15.60;99.90
2130;DHT22;1071;52.544;13.374;2023-05-16T02:26:06;15.60;99.90
2130;DHT22;1071;52.544;13.374;2023-05-16T02:28:33;15.50;99.90
2130;DHT22;1071;52.544;13.374;2023-05-16T02:31:01;15.50;99.90
2130;DHT22;1071;52.544;13.374;2023-05-16T02:33:28;15.40;99.90
2130;DHT22;1071;52.544;13.374;2023-05-16T02:35:55;15.40;99.90
2130;DHT22;1071;52.544;13.374;2023-05-16T02:38:22;15.40;99.90
2130;DHT22;1071;52.544;13.374;2023-05-16T02:40:49;15.30;99.90
2130;DHT22;1071;52.544;13.374;2023-05-16T02:43:16;15.30;99.90
2130;DHT22;1071;52.544;13.374;2023-05-16T02:45:44;15.30;99.90
2130;DHT22;1071;52.544;13.374;2023-05-16T02:48:12;15.20;99.90
2130;DHT22;1071;52.544;13.374;2023-05-16T02:50:39;15.20;99.90
2130;DHT22;1071;52.544;13.374;2023-05-16T02:53:08;15.10;99.90
2130;DHT22;1071;52.544;13.374;2023-05-16T02:55:35;15.10;99.90
2130;DHT22;1071;52.544;13.374;2023-05-16T02:58:02;15.10;99.90
2130;DHT22;1071;52.544;13.374;2023-05-16T03:00:33;15.10;99.90
2130;DHT22;1071;52.544;13.374;2023-05-16T03:03:11;15.10;99.90
2130;DHT22;1071;52.544;13.374;2023-05-16T03:05:43;15.10;99.90
2130;DHT22;1071;52.544;13.374;2023-05-16T03:08:10;15.00;99.90
2130;DHT22;1071;52.544;13.374;2023-05-16T03:10:37;15.00;99.90
2130;DHT22;1071;52.544;13.374;2023-05-16T03:13:04;15.00;99.90
2130;DHT22;1071;52.544;13.374;2023-05-16T03:15:31;15.00;99.90
2130;DHT22;1071;52.544;13.374;2023-05-16T03:17:58;15.00;99.90
2130;DHT22;1071;52.544;13.374;2023-05-16T03:20:25;15.00;99.90
2130;DHT22;1071;52.544;13.374;2023-05-16T03:22:54;15.00;99.90
2130;DHT22;1071;52.544;13.374;2023-05-16T03:25:30;15.00;99.90
2130;DHT22;1071;52.544;13.374;2023-05-16T03:27:57;15.00;99.90
2130;DHT22;1071;52.544;13.374;2023-05-16T03:30:26;15.00;99.90
2130;DHT22;1071;52.544;13.374;2023-05-16T03:32:53;15.00;99.90
2130;DHT22;1071;52.544;13.374;2023-05-16T03:35:20;15.00;99.90
2130;DHT22;1071;52.544;13.374;2023-05-16T03:37:49;14.90;99.90
2130;DHT22;1071;52.544;13.374;2023-05-16T03:40:27;14.90;99.90
2130;DHT22;1071;52.544;13.374;2023-05-16T03:42:54;14.90;99.90
2130;DHT22;1071;52.544;13.374;2023-05-16T03:45:21;14.90;99.90
2130;DHT22;1071;52.544;13.374;2023-05-16T03:47:48;14.90;99.90
2130;DHT22;1071;52.544;13.374;2023-05-16T03:50:15;14.90;99.90
2130;DHT22;1071;52.544;13.374;2023-05-16T03:52:43;14.80;99.90
2130;DHT22;1071;52.544;13.374;2023-05-16T03:55:10;14.80;99.90
2130;DHT22;1071;52.544;13.374;2023-05-16T03:57:40;14.80;99.90
2130;DHT22;1071;52.544;13.374;2023-05-16T04:00:08;14.80;99.90
2130;DHT22;1071;52.544;13.374;2023-05-16T04:02:37;14.80;99.90
2130;DHT22;1071;52.544;13.374;2023-05-16T04:05:06;14.80;99.90
2130;DHT22;1071;52.544;13.374;2023-05-16T04:07:33;14.80;99.90
2130;DHT22;1071;52.544;13.374;2023-05-16T04:10:01;14.70;99.90
2130;DHT22;1071;52.544;13.374;2023-05-16T04:12:30;14.70;99.90
2130;DHT22;1071;52.544;13.374;2023-05-16T04:15:01;14.70;99.90
2130;DHT22;1071;52.544;13.374;2023-05-16T04:17:28;14.70;99.90
2130;DHT22;1071;52.544;13.374;2023-05-16T04:19:55;14.80;99.90
2130;DHT22;1071;52.544;13.374;2023-05-16T04:22:23;14.70;99.90
2130;DHT22;1071;52.544;13.374;2023-05-16T04:24:50;14.70;99.90
2130;DHT22;1071;52.544;13.374;2023-05-16T04:27:17;14.70;99.90
2130;DHT22;1071;52.544;13.374;2023-05-16T04:29:44;14.70;99.90
2130;DHT22;1071;52.544;13.374;2023-05-16T04:32:12;14.70;99.90
2130;DHT22;1071;52.544;13.374;2023-05-16T04:34:40;14.70;99.90
2130;DHT22;1071;52.544;13.374;2023-05-16T04:37:09;14.70;99.90
2130;DHT22;1071;52.544;13.374;2023-05-16T04:39:36;14.70;99.90
2130;DHT22;1071;52.544;13.374;2023-05-16T04:42:05;14.70;99.90
2130;DHT22;1071;52.544;13.374;2023-05-16T04:44:32;14.70;99.90
2130;DHT22;1071;52.544;13.374;2023-05-16T04:46:59;14.70;99.90
2130;DHT22;1071;52.544;13.374;2023-05-16T04:49:28;14.60;99.90
2130;DHT22;1071;52.544;13.374;2023-05-16T04:51:55;14.60;99.90
2130;DHT22;1071;52.544;13.374;2023-05-16T04:54:22;14.60;99.90
2130;DHT22;1071;52.544;13.374;2023-05-16T04:56:49;14.60;99.90
2130;DHT22;1071;52.544;13.374;2023-05-16T04:59:16;14.60;99.90
2130;DHT22;1071;52.544;13.374;2023-05-16T05:01:47;14.60;99.90
2130;DHT22;1071;52.544;13.374;2023-05-16T05:04:14;14.50;99.90
2130;DHT22;1071;52.544;13.374;2023-05-16T05:06:44;14.50;99.90
2130;DHT22;1071;52.544;13.374;2023-05-16T05:09:11;14.40;99.90
2130;DHT22;1071;52.544;13.374;2023-05-16T05:11:38;14.40;99.90
2130;DHT22;1071;52.544;13.374;2023-05-16T05:14:05;14.40;99.90
2130;DHT22;1071;52.544;13.374;2023-05-16T05:16:32;14.30;99.90
2130;DHT22;1071;52.544;13.374;2023-05-16T05:19:00;14.30;99.90
2130;DHT22;1071;52.544;13.374;2023-05-16T05:21:27;14.30;99.90
2130;DHT22;1071;52.544;13.374;2023-05-16T05:23:56;14.30;99.90
2130;DHT22;1071;52.544;13.374;2023-05-16T05:26:23;14.40;99.90
2130;DHT22;1071;52.544;13.374;2023-05-16T05:28:56;14.40;99.90
2130;DHT22;1071;52.544;13.374;2023-05-16T05:31:23;14.40;99.90
2130;DHT22;1071;52.544;13.374;2023-05-16T05:33:59;14.40;99.90
2130;DHT22;1071;52.544;13.374;2023-05-16T05:36:26;14.40;99.90
2130;DHT22;1071;52.544;13.374;2023-05-16T05:38:53;14.40;99.90
2130;DHT22;1071;52.544;13.374;2023-05-16T05:41:21;14.40;99.90
2130;DHT22;1071;52.544;13.374;2023-05-16T05:43:48;14.40;99.90
2130;DHT22;1071;52.544;13.374;2023-05-16T05:46:15;14.40;99.90
2130;DHT22;1071;52.544;13.374;2023-05-16T05:48:42;14.50;99.90
2130;DHT22;1071;52.544;13.374;2023-05-16T05:51:10;14.40;99.90
2130;DHT22;1071;52.544;13.374;2023-05-16T05:53:39;14.50;99.90
2130;DHT22;1071;52.544;13.374;2023-05-16T05:56:06;14.50;99.90
2130;DHT22;1071;52.544;13.374;2023-05-16T05:58:35;14.50;99.90
2130;DHT22;1071;52.544;13.374;2023-05-16T06:01:02;14.50;99.90
2130;DHT22;1071;52.544;13.374;2023-05-16T06:03:29;14.50;99.90
2130;DHT22;1071;52.544;13.374;2023-05-16T06:05:56;14.50;99.90
2130;DHT22;1071;52.544;13.374;2023-05-16T06:08:23;14.50;99.90
2130;DHT22;1071;52.544;13.374;2023-05-16T06:10:51;14.50;99.90
2130;DHT22;1071;52.544;13.374;2023-05-16T06:13:18;14.50;99.90
2130;DHT22;1071;52.544;13.374;2023-05-16T06:15:51;14.50;99.90
2130;DHT22;1071;52.544;13.374;2023-05-16T06:18:18;14.50;99.90
2130;DHT22;1071;52.544;13.374;2023-05-16T06:20:46;14.50;99.90
2130;DHT22;1071;52.544;13.374;2023-05-16T06:23:13;14.50;99.90
2130;DHT22;1071;52.544;13.374;2023-05-16T06:25:40;14.50;99.90
2130;DHT22;1071;52.544;13.374;2023-05-16T06:28:07;14.50;99.90
2130;DHT22;1071;52.544;13.374;2023-05-16T06:30:34;14.50;99.90
2130;DHT22;1071;52.544;13.374;2023-05-16T06:33:02;14.50;99.90
2130;DHT22;1071;52.544;13.374;2023-05-16T06:35:29;14.50;99.90
2130;DHT22;1071;52.544;13.374;2023-05-16T06:37:56;14.50;99.90
2130;DHT22;1071;52.544;13.374;2023-05-16T06:40:24;14.50;99.90
2130;DHT22;1071;52.544;13.374;2023-05-16T06:42:51;14.50;99.90
2130;DHT22;1071;52.544;13.374;2023-05-16T06:45:18;14.50;99.90
2130;DHT22;1071;52.544;13.374;2023-05-16T06:47:45;14.50;99.90
2130;DHT22;1071;52.544;13.374;2023-05-16T06:50:13;14.50;99.90
2130;DHT22;1071;52.544;13.374;2023-05-16T06:52:40;14.60;99.90
2130;DHT22;1071;52.544;13.374;2023-05-16T06:55:08;14.60;99.90
2130;DHT22;1071;52.544;13.374;2023-05-16T06:57:36;14.70;99.90
2130;DHT22;1071;52.544;13.374;2023-05-16T07:00:05;14.70;99.90
2130;DHT22;1071;52.544;13.374;2023-05-16T07:02:32;14.70;99.90
2130;DHT22;1071;52.544;13.374;2023-05-16T07:04:59;14.70;99.90
2130;DHT22;1071;52.544;13.374;2023-05-16T07:07:28;14.80;99.90
2130;DHT22;1071;52.544;13.374;2023-05-16T07:09:55;14.80;99.90
2130;DHT22;1071;52.544;13.374;2023-05-16T07:12:22;14.80;99.90
2130;DHT22;1071;52.544;13.374;2023-05-16T07:14:49;14.80;99.90
2130;DHT22;1071;52.544;13.374;2023-05-16T07:17:16;14.80;99.90
2130;DHT22;1071;52.544;13.374;2023-05-16T07:19:43;14.80;99.90
2130;DHT22;1071;52.544;13.374;2023-05-16T07:22:10;14.90;99.90
2130;DHT22;1071;52.544;13.374;2023-05-16T07:24:39;14.90;99.90
2130;DHT22;1071;52.544;13.374;2023-05-16T07:27:06;14.90;99.90
2130;DHT22;1071;52.544;13.374;2023-05-16T07:29:33;14.90;99.90
2130;DHT22;1071;52.544;13.374;2023-05-16T07:32:01;14.90;99.90
2130;DHT22;1071;52.544;13.374;2023-05-16T07:34:28;15.00;99.90
2130;DHT22;1071;52.544;13.374;2023-05-16T07:36:55;15.00;99.90
2130;DHT22;1071;52.544;13.374;2023-05-16T07:39:22;15.10;99.90
2130;DHT22;1071;52.544;13.374;2023-05-16T07:41:53;15.10;99.90
2130;DHT22;1071;52.544;13.374;2023-05-16T07:44:20;15.20;99.90
2130;DHT22;1071;52.544;13.374;2023-05-16T07:46:47;15.20;99.90
2130;DHT22;1071;52.544;13.374;2023-05-16T07:49:14;15.20;99.90
2130;DHT22;1071;52.544;13.374;2023-05-16T07:51:41;15.20;99.90
2130;DHT22;1071;52.544;13.374;2023-05-16T07:54:08;15.20;99.90
2130;DHT22;1071;52.544;13.374;2023-05-16T07:56:35;15.30;99.90
2130;DHT22;1071;52.544;13.374;2023-05-16T07:59:03;15.30;99.90
2130;DHT22;1071;52.544;13.374;2023-05-16T08:01:32;15.30;99.90
2130;DHT22;1071;52.544;13.374;2023-05-16T08:03:59;15.30;99.90
2130;DHT22;1071;52.544;13.374;2023-05-16T08:06:26;15.30;99.90
2130;DHT22;1071;52.544;13.374;2023-05-16T08:08:54;15.20;99.90
2130;DHT22;1071;52.544;13.374;2023-05-16T08:11:21;15.30;99.90
2130;DHT22;1071;52.544;13.374;2023-05-16T08:13:48;15.20;99.90
2130;DHT22;1071;52.544;13.374;2023-05-16T08:16:17;15.30;99.90
2130;DHT22;1071;52.544;13.374;2023-05-16T08:18:44;15.20;99.90
2130;DHT22;1071;52.544;13.374;2023-05-16T08:21:11;15.20;99.90
2130;DHT22;1071;52.544;13.374;2023-05-16T08:23:38;15.20;99.90
2130;DHT22;1071;52.544;13.374;2023-05-16T08:26:05;15.20;99.90
2130;DHT22;1071;52.544;13.374;2023-05-16T08:28:32;15.20;99.90
2130;DHT22;1071;52.544;13.374;2023-05-16T08:31:01;15.30;99.90
2130;DHT22;1071;52.544;13.374;2023-05-16T08:33:29;15.30;99.90
2130;DHT22;1071;52.544;13.374;2023-05-16T08:35:57;15.30;99.90
2130;DHT22;1071;52.544;13.374;2023-05-16T08:38:25;15.30;99.90
2130;DHT22;1071;52.544;13.374;2023-05-16T08:40:52;15.30;99.90
2130;DHT22;1071;52.544;13.374;2023-05-16T08:43:19;15.30;99.90
2130;DHT22;1071;52.544;13.374;2023-05-16T08:45:46;15.30;99.90
2130;DHT22;1071;52.544;13.374;2023-05-16T08:48:14;15.30;99.90
2130;DHT22;1071;52.544;13.374;2023-05-16T08:50:43;15.30;99.90
2130;DHT22;1071;52.544;13.374;2023-05-16T08:53:11;15.30;99.90
2130;DHT22;1071;52.544;13.374;2023-05-16T08:55:40;15.40;99.90
2130;DHT22;1071;52.544;13.374;2023-05-16T08:58:08;15.30;99.90
2130;DHT22;1071;52.544;13.374;2023-05-16T09:00:47;15.30;99.90
2130;DHT22;1071;52.544;13.374;2023-05-16T09:03:14;15.30;99.90
2130;DHT22;1071;52.544;13.374;2023-05-16T09:05:43;15.30;99.90
2130;DHT22;1071;52.544;13.374;2023-05-16T09:08:10;15.30;99.90
2130;DHT22;1071;52.544;13.374;2023-05-16T09:10:37;15.30;99.90
2130;DHT22;1071;52.544;13.374;2023-05-16T09:13:04;15.40;99.90
2130;DHT22;1071;52.544;13.374;2023-05-16T09:15:31;15.30;99.90
2130;DHT22;1071;52.544;13.374;2023-05-16T09:17:59;15.30;99.90
2130;DHT22;1071;52.544;13.374;2023-05-16T09:20:27;15.30;99.90
2130;DHT22;1071;52.544;13.374;2023-05-16T09:22:57;15.30;99.90
2130;DHT22;1071;52.544;13.374;2023-05-16T09:25:26;15.30;99.90
2130;DHT22;1071;52.544;13.374;2023-05-16T09:27:54;15.40;99.90
2130;DHT22;1071;52.544;13.374;2023-05-16T09:30:21;15.40;99.90
2130;DHT22;1071;52.544;13.374;2023-05-16T09:32:50;15.40;99.90
2130;DHT22;1071;52.544;13.374;2023-05-16T09:35:18;15.50;99.90
2130;DHT22;1071;52.544;13.374;2023-05-16T09:37:46;15.50;99.90
2130;DHT22;1071;52.544;13.374;2023-05-16T09:40:14;15.50;99.90
2130;DHT22;1071;52.544;13.374;2023-05-16T09:42:42;15.60;99.90
2130;DHT22;1071;52.544;13.374;2023-05-16T09:45:12;15.60;99.90
2130;DHT22;1071;52.544;13.374;2023-05-16T09:47:39;15.60;99.90
2130;DHT22;1071;52.544;13.374;2023-05-16T09:50:12;15.70;99.90
2130;DHT22;1071;52.544;13.374;2023-05-16T09:52:41;15.70;99.90
2130;DHT22;1071;52.544;13.374;2023-05-16T09:55:08;15.80;99.90
2130;DHT22;1071;52.544;13.374;2023-05-16T09:57:38;15.70;99.90
2130;DHT22;1071;52.544;13.374;2023-05-16T10:00:06;15.80;99.90
2130;DHT22;1071;52.544;13.374;2023-05-16T10:02:36;15.70;99.90
2130;DHT22;1071;52.544;13.374;2023-05-16T10:05:04;15.80;99.90
2130;DHT22;1071;52.544;13.374;2023-05-16T10:07:32;15.80;99.90
2130;DHT22;1071;52.544;13.374;2023-05-16T10:10:00;15.70;99.90
2130;DHT22;1071;52.544;13.374;2023-05-16T10:12:32;15.80;99.90
2130;DHT22;1071;52.544;13.374;2023-05-16T10:15:02;15.70;99.90
2130;DHT22;1071;52.544;13.374;2023-05-16T10:17:32;15.80;99.90
2130;DHT22;1071;52.544;13.374;2023-05-16T10:20:01;15.80;99.90
2130;DHT22;1071;52.544;13.374;2023-05-16T10:22:33;15.80;99.90
2130;DHT22;1071;52.544;13.374;2023-05-16T10:25:07;15.80;99.90
2130;DHT22;1071;52.544;13.374;2023-05-16T10:27:36;15.80;99.90
2130;DHT22;1071;52.544;13.374;2023-05-16T10:30:07;15.70;99.90
2130;DHT22;1071;52.544;13.374;2023-05-16T10:32:35;15.80;99.90
2130;DHT22;1071;52.544;13.374;2023-05-16T10:35:02;15.80;99.90
2130;DHT22;1071;52.544;13.374;2023-05-16T10:37:30;15.80;99.90
2130;DHT22;1071;52.544;13.374;2023-05-16T10:40:05;15.80;99.90
2130;DHT22;1071;52.544;13.374;2023-05-16T10:42:35;15.80;99.90
2130;DHT22;1071;52.544;13.374;2023-05-16T10:45:15;15.80;99.90
2130;DHT22;1071;52.544;13.374;2023-05-16T10:47:50;15.80;99.90
2130;DHT22;1071;52.544;13.374;2023-05-16T10:50:30;15.80;99.90
2130;DHT22;1071;52.544;13.374;2023-05-16T10:53:13;15.80;99.90
2130;DHT22;1071;52.544;13.374;2023-05-16T10:55:45;15.80;99.90
2130;DHT22;1071;52.544;13.374;2023-05-16T10:58:21;15.70;99.90
2130;DHT22;1071;52.544;13.374;2023-05-16T11:01:13;15.60;99.90
2130;DHT22;1071;52.544;13.374;2023-05-16T11:04:00;15.60;99.90
2130;DHT22;1071;52.544;13.374;2023-05-16T11:06:28;15.60;99.90
2130;DHT22;1071;52.544;13.374;2023-05-16T11:09:03;15.60;99.90
2130;DHT22;1071;52.544;13.374;2023-05-16T11:11:41;15.60;99.90
2130;DHT22;1071;52.544;13.374;2023-05-16T11:14:08;15.70;99.90
2130;DHT22;1071;52.544;13.374;2023-05-16T11:16:47;15.60;99.90
2130;DHT22;1071;52.544;13.374;2023-05-16T11:19:28;15.70;99.90
2130;DHT22;1071;52.544;13.374;2023-05-16T11:22:12;15.80;99.90
2130;DHT22;1071;52.544;13.374;2023-05-16T11:24:59;15.90;99.90
2130;DHT22;1071;52.544;13.374;2023-05-16T11:27:28;15.90;99.90
2130;DHT22;1071;52.544;13.374;2023-05-16T11:29:58;16.00;99.90
2130;DHT22;1071;52.544;13.374;2023-05-16T11:32:27;16.10;99.90
2130;DHT22;1071;52.544;13.374;2023-05-16T11:34:55;16.10;99.90
2130;DHT22;1071;52.544;13.374;2023-05-16T11:37:24;16.20;99.90
2130;DHT22;1071;52.544;13.374;2023-05-16T11:39:51;16.10;99.90
2130;DHT22;1071;52.544;13.374;2023-05-16T11:42:18;16.20;99.90
2130;DHT22;1071;52.544;13.374;2023-05-16T11:44:45;16.30;99.90
2130;DHT22;1071;52.544;13.374;2023-05-16T11:47:12;16.30;99.90
2130;DHT22;1071;52.544;13.374;2023-05-16T11:49:40;16.40;99.90
2130;DHT22;1071;52.544;13.374;2023-05-16T11:52:07;16.50;99.80
2130;DHT22;1071;52.544;13.374;2023-05-16T11:54:35;16.50;99.60
2130;DHT22;1071;52.544;13.374;2023-05-16T11:57:04;16.60;99.30
2130;DHT22;1071;52.544;13.374;2023-05-16T11:59:31;16.60;99.30
2130;DHT22;1071;52.544;13.374;2023-05-16T12:02:02;16.60;99.00
2130;DHT22;1071;52.544;13.374;2023-05-16T12:04:30;16.70;98.80
2130;DHT22;1071;52.544;13.374;2023-05-16T12:07:00;16.70;98.60
2130;DHT22;1071;52.544;13.374;2023-05-16T12:09:28;16.70;98.70
2130;DHT22;1071;52.544;13.374;2023-05-16T12:11:55;16.70;98.50
2130;DHT22;1071;52.544;13.374;2023-05-16T12:14:23;16.70;98.40
2130;DHT22;1071;52.544;13.374;2023-05-16T12:16:51;16.70;98.50
2130;DHT22;1071;52.544;13.374;2023-05-16T12:19:20;16.70;98.50
2130;DHT22;1071;52.544;13.374;2023-05-16T12:21:50;16.80;98.50
2130;DHT22;1071;52.544;13.374;2023-05-16T12:24:19;16.80;98.20
2130;DHT22;1071;52.544;13.374;2023-05-16T12:26:46;16.80;98.10
2130;DHT22;1071;52.544;13.374;2023-05-16T12:29:13;16.80;97.60
2130;DHT22;1071;52.544;13.374;2023-05-16T12:31:40;16.90;97.70
2130;DHT22;1071;52.544;13.374;2023-05-16T12:34:15;16.90;97.30
2130;DHT22;1071;52.544;13.374;2023-05-16T12:36:42;17.00;97.10
2130;DHT22;1071;52.544;13.374;2023-05-16T12:42:34;17.00;95.80
2130;DHT22;1071;52.544;13.374;2023-05-16T12:45:01;17.10;95.50
2130;DHT22;1071;52.544;13.374;2023-05-16T12:47:34;17.20;95.30
2130;DHT22;1071;52.544;13.374;2023-05-16T12:50:02;17.40;95.30
2130;DHT22;1071;52.544;13.374;2023-05-16T12:52:34;17.40;95.10
2130;DHT22;1071;52.544;13.374;2023-05-16T12:55:02;17.50;94.80
2130;DHT22;1071;52.544;13.374;2023-05-16T12:57:29;17.50;94.50
2130;DHT22;1071;52.544;13.374;2023-05-16T12:59:57;17.60;94.60
2130;DHT22;1071;52.544;13.374;2023-05-16T13:02:24;17.70;95.00
2130;DHT22;1071;52.544;13.374;2023-05-16T13:04:51;17.80;94.50
2130;DHT22;1071;52.544;13.374;2023-05-16T13:07:18;17.90;93.60
2130;DHT22;1071;52.544;13.374;2023-05-16T13:09:45;18.10;92.90
2130;DHT22;1071;52.544;13.374;2023-05-16T13:12:13;18.20;91.70
2130;DHT22;1071;52.544;13.374;2023-05-16T13:14:40;18.30;91.90
2130;DHT22;1071;52.544;13.374;2023-05-16T13:17:09;18.30;91.80
2130;DHT22;1071;52.544;13.374;2023-05-16T13:19:37;18.40;91.90
2130;DHT22;1071;52.544;13.374;2023-05-16T13:22:17;18.50;91.30
2130;DHT22;1071;52.544;13.374;2023-05-16T13:24:49;18.60;90.70
2130;DHT22;1071;52.544;13.374;2023-05-16T13:27:19;18.70;90.10
2130;DHT22;1071;52.544;13.374;2023-05-16T13:29:46;18.80;88.90
2130;DHT22;1071;52.544;13.374;2023-05-16T13:32:14;18.80;88.50
2130;DHT22;1071;52.544;13.374;2023-05-16T13:34:43;18.90;88.20
2130;DHT22;1071;52.544;13.374;2023-05-16T13:37:10;19.00;86.50
2130;DHT22;1071;52.544;13.374;2023-05-16T13:39:37;19.10;86.00
2130;DHT22;1071;52.544;13.374;2023-05-16T13:42:04;19.10;86.00
2130;DHT22;1071;52.544;13.374;2023-05-16T13:44:31;19.00;86.00
2130;DHT22;1071;52.544;13.374;2023-05-16T13:46:58;19.00;84.30
2130;DHT22;1071;52.544;13.374;2023-05-16T13:49:27;19.00;84.50
2130;DHT22;1071;52.544;13.374;2023-05-16T13:51:57;18.90;83.60
2130;DHT22;1071;52.544;13.374;2023-05-16T13:54:26;18.90;83.00
2130;DHT22;1071;52.544;13.374;2023-05-16T13:56:53;18.80;78.90
2130;DHT22;1071;52.544;13.374;2023-05-16T13:59:20;18.80;77.90
2130;DHT22;1071;52.544;13.374;2023-05-16T14:01:47;18.80;77.80
2130;DHT22;1071;52.544;13.374;2023-05-16T14:04:15;18.80;77.90
2130;DHT22;1071;52.544;13.374;2023-05-16T14:06:44;18.80;78.00
2130;DHT22;1071;52.544;13.374;2023-05-16T14:09:10;18.80;78.00
2130;DHT22;1071;52.544;13.374;2023-05-16T14:11:39;18.80;77.70
2130;DHT22;1071;52.544;13.374;2023-05-16T14:14:06;18.80;76.30
2130;DHT22;1071;52.544;13.374;2023-05-16T14:16:33;18.70;76.50
2130;DHT22;1071;52.544;13.374;2023-05-16T14:19:00;18.70;77.70
2130;DHT22;1071;52.544;13.374;2023-05-16T14:21:27;18.60;76.50
2130;DHT22;1071;52.544;13.374;2023-05-16T14:23:55;18.70;76.20
2130;DHT22;1071;52.544;13.374;2023-05-16T14:26:24;18.60;76.80
2130;DHT22;1071;52.544;13.374;2023-05-16T14:28:51;18.60;76.60
2130;DHT22;1071;52.544;13.374;2023-05-16T14:31:27;18.60;76.30
2130;DHT22;1071;52.544;13.374;2023-05-16T14:33:53;18.60;76.30
2130;DHT22;1071;52.544;13.374;2023-05-16T14:36:20;18.60;76.10
2130;DHT22;1071;52.544;13.374;2023-05-16T14:38:47;18.60;76.00
2130;DHT22;1071;52.544;13.374;2023-05-16T14:41:16;18.70;74.80
2130;DHT22;1071;52.544;13.374;2023-05-16T14:43:44;18.70;74.80
2130;DHT22;1071;52.544;13.374;2023-05-16T14:46:29;18.70;73.60
2130;DHT22;1071;52.544;13.374;2023-05-16T14:48:59;18.70;72.20
2130;DHT22;1071;52.544;13.374;2023-05-16T14:51:28;18.60;72.10
2130;DHT22;1071;52.544;13.374;2023-05-16T14:53:58;18.60;71.80
2130;DHT22;1071;52.544;13.374;2023-05-16T14:56:26;18.60;71.90
2130;DHT22;1071;52.544;13.374;2023-05-16T14:58:54;18.60;71.90
2130;DHT22;1071;52.544;13.374;2023-05-16T15:01:23;18.60;71.30
2130;DHT22;1071;52.544;13.374;2023-05-16T15:03:50;18.60;71.00
2130;DHT22;1071;52.544;13.374;2023-05-16T15:06:17;18.60;69.70
2130;DHT22;1071;52.544;13.374;2023-05-16T15:08:44;18.60;69.70
2130;DHT22;1071;52.544;13.374;2023-05-16T15:11:13;18.60;68.50
2130;DHT22;1071;52.544;13.374;2023-05-16T15:13:42;18.60;68.10
2130;DHT22;1071;52.544;13.374;2023-05-16T15:16:09;18.60;67.50
2130;DHT22;1071;52.544;13.374;2023-05-16T15:18:36;18.60;66.60
2130;DHT22;1071;52.544;13.374;2023-05-16T15:21:05;18.50;66.70
2130;DHT22;1071;52.544;13.374;2023-05-16T15:23:33;18.50;66.60
2130;DHT22;1071;52.544;13.374;2023-05-16T15:26:00;18.50;66.60
2130;DHT22;1071;52.544;13.374;2023-05-16T15:28:28;18.50;66.60
2130;DHT22;1071;52.544;13.374;2023-05-16T15:30:56;18.50;66.70
2130;DHT22;1071;52.544;13.374;2023-05-16T15:33:23;18.50;66.50
2130;DHT22;1071;52.544;13.374;2023-05-16T15:35:50;18.50;66.20
2130;DHT22;1071;52.544;13.374;2023-05-16T15:38:18;18.50;65.60
2130;DHT22;1071;52.544;13.374;2023-05-16T15:40:45;18.50;65.40
2130;DHT22;1071;52.544;13.374;2023-05-16T15:43:12;18.50;64.80
2130;DHT22;1071;52.544;13.374;2023-05-16T15:45:39;18.60;62.30
2130;DHT22;1071;52.544;13.374;2023-05-16T15:48:10;18.50;61.80
2130;DHT22;1071;52.544;13.374;2023-05-16T15:50:37;18.50;61.50
2130;DHT22;1071;52.544;13.374;2023-05-16T15:53:05;18.50;61.50
2130;DHT22;1071;52.544;13.374;2023-05-16T15:55:32;18.50;61.00
2130;DHT22;1071;52.544;13.374;2023-05-16T15:57:59;18.50;61.10